Inicio METAR Ruta Wind Satelite

Informe Meteorológico

Fecha: 2024/07/13 07:20:36 Local
2024.07.13 12:20 UTC


Operación:VFR
SKBG 131200Z 19003KT 9999 SCT017 SCT070 20/18 Q1018 =

SKBG 131100Z 17003KT 9999 MIFG SCT015 SCT070 20/19 Q1018
SKBG 131029Z 15004KT 6000 BCFG BKN008 SCT070 20/18 Q1017
SKBG 131000Z AUTO VRB01KT //// BKN003/// 19/18 Q1017
SKBG 130900Z AUTO VRB01KT //// NCD 20/19 Q1017
SKBG 130800Z AUTO VRB01KT //// SCT130/// 20/18 Q1017

2024/07/13 12:36
TAF TAF SKBG 131030Z 1312/1412 00000KT 9999 SCT010
TEMPO 1312/1315 5000 DZ BCFG BKN006
BECMG 1316/1318 32011KT
TEMPO 1320/1324 DZRA SCT015TCU
BECMG 1402/1404 VRB03KT TX27/1319Z TN19/1410Z